Valley Lodge, Texas
Current Conditions -  °F | °C
As of 8:55 AM on Friday 28 Nov 2014 (Local Time) from KTME Reporting Station
Clear Clear  
Wind Chill: 55°   Ceiling: Unl
Heat Index: 55°   Visibility: 10mi
Dew Point: 48°   Wind: 7mph
Humidity: 77%   Direction: 130°SE
Pressure: 30.36"   Gusts: NA
Location:  29.688°N, 95.9525°W
Report Text: KTME 281455Z AUTO 13006KT 10SM CLR 13/09 A3036 RMK AO2
Loading
Personal Weather Stations






























Interactive Weather Map New forecast layout! Learn more

10-Day Weather Forecast

Advertisements
Track Severe Weather on mobile